Terminal Aerodrome Forecast
Issued by NWS

Home | Current Version | Previous Version | Text Only | Print | Product List | Glossary On
Versions: 1 2 3 4 5 6 7 8 9 10 11 12 13
512
FTUS46 KLOX 252359
TAFVNY
TAF
KVNY 252359Z 2600/2624 16009KT P6SM FEW100 SCT150
     FM260400 12004KT P6SM SKC
     FM261200 VRB03KT 6SM BR FEW006
     FM261500 13003KT P6SM SKC
     FM262000 16009KT P6SM SKC=

USA.gov is the U.S. government's official web portal to all federal, state and local government web resources and services.